sensor_id;sensor_type;location;lat;lon;timestamp;P1;durP1;ratioP1;P2;durP2;ratioP2
21420;SDS011;10871;50.144;8.428;2023-05-10T00:02:00;0.95;;;0.40;;
21420;SDS011;10871;50.144;8.428;2023-05-10T00:04:27;0.40;;;0.40;;
21420;SDS011;10871;50.144;8.428;2023-05-10T00:06:54;0.43;;;0.43;;
21420;SDS011;10871;50.144;8.428;2023-05-10T00:09:21;0.55;;;0.40;;
21420;SDS011;10871;50.144;8.428;2023-05-10T00:11:47;0.30;;;0.30;;
21420;SDS011;10871;50.144;8.428;2023-05-10T00:14:14;0.98;;;0.30;;
21420;SDS011;10871;50.144;8.428;2023-05-10T00:16:40;2.08;;;0.50;;
21420;SDS011;10871;50.144;8.428;2023-05-10T00:19:07;2.40;;;0.50;;
21420;SDS011;10871;50.144;8.428;2023-05-10T00:21:34;0.57;;;0.40;;
21420;SDS011;10871;50.144;8.428;2023-05-10T00:24:01;1.95;;;0.47;;
21420;SDS011;10871;50.144;8.428;2023-05-10T00:26:27;0.60;;;0.35;;
21420;SDS011;10871;50.144;8.428;2023-05-10T00:28:55;1.08;;;0.40;;
21420;SDS011;10871;50.144;8.428;2023-05-10T00:31:22;1.73;;;0.40;;
21420;SDS011;10871;50.144;8.428;2023-05-10T00:33:49;1.90;;;0.50;;
21420;SDS011;10871;50.144;8.428;2023-05-10T00:36:15;2.38;;;0.70;;
21420;SDS011;10871;50.144;8.428;2023-05-10T00:38:42;1.35;;;0.30;;
21420;SDS011;10871;50.144;8.428;2023-05-10T00:41:09;1.20;;;0.50;;
21420;SDS011;10871;50.144;8.428;2023-05-10T00:43:38;2.65;;;0.40;;
21420;SDS011;10871;50.144;8.428;2023-05-10T00:46:04;1.27;;;0.40;;
21420;SDS011;10871;50.144;8.428;2023-05-10T00:48:31;0.60;;;0.50;;
21420;SDS011;10871;50.144;8.428;2023-05-10T00:51:00;3.70;;;0.50;;
21420;SDS011;10871;50.144;8.428;2023-05-10T00:53:27;1.52;;;0.40;;
21420;SDS011;10871;50.144;8.428;2023-05-10T00:55:54;2.45;;;0.50;;
21420;SDS011;10871;50.144;8.428;2023-05-10T00:58:21;0.43;;;0.43;;
21420;SDS011;10871;50.144;8.428;2023-05-10T01:00:49;1.35;;;0.40;;
21420;SDS011;10871;50.144;8.428;2023-05-10T01:03:16;0.85;;;0.47;;
21420;SDS011;10871;50.144;8.428;2023-05-10T01:05:43;1.65;;;0.43;;
21420;SDS011;10871;50.144;8.428;2023-05-10T01:08:10;0.82;;;0.50;;
21420;SDS011;10871;50.144;8.428;2023-05-10T01:10:36;1.08;;;0.45;;
21420;SDS011;10871;50.144;8.428;2023-05-10T01:13:03;1.02;;;0.47;;
21420;SDS011;10871;50.144;8.428;2023-05-10T01:15:30;0.63;;;0.40;;
21420;SDS011;10871;50.144;8.428;2023-05-10T01:17:57;1.40;;;0.50;;
21420;SDS011;10871;50.144;8.428;2023-05-10T01:20:24;0.50;;;0.50;;
21420;SDS011;10871;50.144;8.428;2023-05-10T01:40:47;0.98;;;0.50;;
21420;SDS011;10871;50.144;8.428;2023-05-10T01:43:19;0.98;;;0.52;;
21420;SDS011;10871;50.144;8.428;2023-05-10T01:45:58;2.15;;;0.50;;
21420;SDS011;10871;50.144;8.428;2023-05-10T01:48:26;0.50;;;0.50;;
21420;SDS011;10871;50.144;8.428;2023-05-10T01:50:54;2.17;;;0.60;;
21420;SDS011;10871;50.144;8.428;2023-05-10T01:53:22;3.63;;;0.60;;
21420;SDS011;10871;50.144;8.428;2023-05-10T01:55:50;3.10;;;0.60;;
21420;SDS011;10871;50.144;8.428;2023-05-10T01:58:20;0.52;;;0.52;;
21420;SDS011;10871;50.144;8.428;2023-05-10T02:00:48;2.15;;;0.63;;
21420;SDS011;10871;50.144;8.428;2023-05-10T02:03:15;4.45;;;0.50;;
21420;SDS011;10871;50.144;8.428;2023-05-10T02:05:43;1.45;;;0.60;;
21420;SDS011;10871;50.144;8.428;2023-05-10T02:08:12;1.65;;;0.60;;
21420;SDS011;10871;50.144;8.428;2023-05-10T02:10:40;1.15;;;0.60;;
21420;SDS011;10871;50.144;8.428;2023-05-10T02:13:07;1.67;;;0.80;;
21420;SDS011;10871;50.144;8.428;2023-05-10T02:15:34;1.17;;;0.50;;
21420;SDS011;10871;50.144;8.428;2023-05-10T02:18:01;0.55;;;0.55;;
21420;SDS011;10871;50.144;8.428;2023-05-10T02:20:43;2.22;;;0.60;;
21420;SDS011;10871;50.144;8.428;2023-05-10T02:23:10;3.65;;;0.60;;
21420;SDS011;10871;50.144;8.428;2023-05-10T02:25:37;2.67;;;0.60;;
21420;SDS011;10871;50.144;8.428;2023-05-10T02:28:05;4.15;;;0.60;;
21420;SDS011;10871;50.144;8.428;2023-05-10T02:30:32;1.77;;;0.60;;
21420;SDS011;10871;50.144;8.428;2023-05-10T02:33:00;2.95;;;0.60;;
21420;SDS011;10871;50.144;8.428;2023-05-10T02:35:28;1.58;;;0.70;;
21420;SDS011;10871;50.144;8.428;2023-05-10T02:37:55;1.45;;;0.55;;
21420;SDS011;10871;50.144;8.428;2023-05-10T02:40:22;0.60;;;0.60;;
21420;SDS011;10871;50.144;8.428;2023-05-10T02:42:54;1.15;;;0.68;;
21420;SDS011;10871;50.144;8.428;2023-05-10T02:45:21;3.38;;;0.68;;
21420;SDS011;10871;50.144;8.428;2023-05-10T02:47:49;0.52;;;0.52;;
21420;SDS011;10871;50.144;8.428;2023-05-10T02:50:16;1.70;;;1.48;;
21420;SDS011;10871;50.144;8.428;2023-05-10T02:52:44;0.60;;;0.60;;
21420;SDS011;10871;50.144;8.428;2023-05-10T02:55:14;2.03;;;0.80;;
21420;SDS011;10871;50.144;8.428;2023-05-10T02:57:51;4.47;;;0.90;;
21420;SDS011;10871;50.144;8.428;2023-05-10T03:00:20;0.82;;;0.82;;
21420;SDS011;10871;50.144;8.428;2023-05-10T03:02:47;1.83;;;0.90;;
21420;SDS011;10871;50.144;8.428;2023-05-10T03:05:13;1.10;;;1.10;;
21420;SDS011;10871;50.144;8.428;2023-05-10T03:07:40;2.13;;;1.15;;
21420;SDS011;10871;50.144;8.428;2023-05-10T03:10:07;1.98;;;1.40;;
21420;SDS011;10871;50.144;8.428;2023-05-10T03:18:10;1.33;;;1.10;;
21420;SDS011;10871;50.144;8.428;2023-05-10T03:23:18;1.75;;;1.30;;
21420;SDS011;10871;50.144;8.428;2023-05-10T03:25:47;3.25;;;1.35;;
21420;SDS011;10871;50.144;8.428;2023-05-10T03:28:15;2.67;;;1.25;;
21420;SDS011;10871;50.144;8.428;2023-05-10T03:30:42;8.27;;;1.40;;
21420;SDS011;10871;50.144;8.428;2023-05-10T03:33:10;1.55;;;1.33;;
21420;SDS011;10871;50.144;8.428;2023-05-10T03:35:41;4.32;;;1.63;;
21420;SDS011;10871;50.144;8.428;2023-05-10T03:38:08;6.60;;;2.22;;
21420;SDS011;10871;50.144;8.428;2023-05-10T03:40:35;3.10;;;2.10;;
21420;SDS011;10871;50.144;8.428;2023-05-10T03:43:01;2.17;;;1.95;;
21420;SDS011;10871;50.144;8.428;2023-05-10T03:45:28;2.10;;;1.90;;
21420;SDS011;10871;50.144;8.428;2023-05-10T03:47:55;4.68;;;2.75;;
21420;SDS011;10871;50.144;8.428;2023-05-10T03:50:23;2.75;;;2.00;;
21420;SDS011;10871;50.144;8.428;2023-05-10T03:52:50;3.83;;;2.00;;
21420;SDS011;10871;50.144;8.428;2023-05-10T03:55:20;2.22;;;2.10;;
21420;SDS011;10871;50.144;8.428;2023-05-10T03:57:46;2.78;;;2.20;;
21420;SDS011;10871;50.144;8.428;2023-05-10T04:00:16;4.78;;;2.40;;
21420;SDS011;10871;50.144;8.428;2023-05-10T04:02:46;3.72;;;2.72;;
21420;SDS011;10871;50.144;8.428;2023-05-10T04:05:17;5.70;;;3.05;;
21420;SDS011;10871;50.144;8.428;2023-05-10T04:07:44;5.03;;;2.97;;
21420;SDS011;10871;50.144;8.428;2023-05-10T04:10:11;3.40;;;2.70;;
21420;SDS011;10871;50.144;8.428;2023-05-10T04:12:38;3.10;;;2.80;;
21420;SDS011;10871;50.144;8.428;2023-05-10T04:15:05;5.35;;;3.30;;
21420;SDS011;10871;50.144;8.428;2023-05-10T04:17:31;4.13;;;3.53;;
21420;SDS011;10871;50.144;8.428;2023-05-10T04:19:58;4.25;;;2.78;;
21420;SDS011;10871;50.144;8.428;2023-05-10T04:22:25;3.25;;;2.75;;
21420;SDS011;10871;50.144;8.428;2023-05-10T04:24:51;6.07;;;2.97;;
21420;SDS011;10871;50.144;8.428;2023-05-10T04:27:18;2.47;;;2.28;;
21420;SDS011;10871;50.144;8.428;2023-05-10T04:29:44;6.43;;;2.90;;
21420;SDS011;10871;50.144;8.428;2023-05-10T04:32:11;4.18;;;3.30;;
21420;SDS011;10871;50.144;8.428;2023-05-10T04:34:38;4.22;;;3.22;;
21420;SDS011;10871;50.144;8.428;2023-05-10T04:37:04;3.97;;;3.58;;
21420;SDS011;10871;50.144;8.428;2023-05-10T04:39:31;3.30;;;3.00;;
21420;SDS011;10871;50.144;8.428;2023-05-10T04:41:59;3.15;;;2.92;;
21420;SDS011;10871;50.144;8.428;2023-05-10T04:44:25;4.28;;;3.05;;
21420;SDS011;10871;50.144;8.428;2023-05-10T04:46:52;3.55;;;3.25;;
21420;SDS011;10871;50.144;8.428;2023-05-10T04:49:18;3.42;;;3.00;;
21420;SDS011;10871;50.144;8.428;2023-05-10T04:51:45;5.20;;;3.13;;
21420;SDS011;10871;50.144;8.428;2023-05-10T04:54:12;4.53;;;2.40;;
21420;SDS011;10871;50.144;8.428;2023-05-10T04:56:39;3.33;;;3.00;;
21420;SDS011;10871;50.144;8.428;2023-05-10T04:59:05;2.88;;;2.55;;
21420;SDS011;10871;50.144;8.428;2023-05-10T05:01:32;3.38;;;3.00;;
21420;SDS011;10871;50.144;8.428;2023-05-10T05:03:59;2.80;;;2.60;;
21420;SDS011;10871;50.144;8.428;2023-05-10T05:06:25;3.15;;;2.75;;
21420;SDS011;10871;50.144;8.428;2023-05-10T05:08:53;3.65;;;3.13;;
21420;SDS011;10871;50.144;8.428;2023-05-10T05:11:20;10.00;;;3.22;;
21420;SDS011;10871;50.144;8.428;2023-05-10T05:13:47;5.75;;;3.30;;
21420;SDS011;10871;50.144;8.428;2023-05-10T05:16:14;3.50;;;2.75;;
21420;SDS011;10871;50.144;8.428;2023-05-10T05:18:40;4.10;;;3.08;;
21420;SDS011;10871;50.144;8.428;2023-05-10T05:21:15;4.43;;;3.30;;
21420;SDS011;10871;50.144;8.428;2023-05-10T05:23:42;3.53;;;3.22;;
21420;SDS011;10871;50.144;8.428;2023-05-10T05:26:09;3.40;;;3.10;;
21420;SDS011;10871;50.144;8.428;2023-05-10T05:28:36;3.63;;;3.15;;
21420;SDS011;10871;50.144;8.428;2023-05-10T05:31:04;3.95;;;3.08;;
21420;SDS011;10871;50.144;8.428;2023-05-10T05:33:32;4.95;;;2.88;;
21420;SDS011;10871;50.144;8.428;2023-05-10T05:36:04;3.58;;;2.95;;
21420;SDS011;10871;50.144;8.428;2023-05-10T05:38:32;6.47;;;3.10;;
21420;SDS011;10871;50.144;8.428;2023-05-10T05:40:58;7.20;;;2.80;;
21420;SDS011;10871;50.144;8.428;2023-05-10T05:43:24;3.90;;;2.90;;
21420;SDS011;10871;50.144;8.428;2023-05-10T05:45:52;3.05;;;2.80;;
21420;SDS011;10871;50.144;8.428;2023-05-10T05:48:18;4.03;;;3.10;;
21420;SDS011;10871;50.144;8.428;2023-05-10T05:50:45;3.63;;;2.90;;
21420;SDS011;10871;50.144;8.428;2023-05-10T05:53:12;5.78;;;3.00;;
21420;SDS011;10871;50.144;8.428;2023-05-10T05:55:38;3.15;;;2.85;;
21420;SDS011;10871;50.144;8.428;2023-05-10T05:58:05;7.05;;;2.67;;
21420;SDS011;10871;50.144;8.428;2023-05-10T06:00:31;4.75;;;2.90;;
21420;SDS011;10871;50.144;8.428;2023-05-10T06:02:58;4.63;;;2.80;;
21420;SDS011;10871;50.144;8.428;2023-05-10T06:05:25;4.78;;;2.38;;
21420;SDS011;10871;50.144;8.428;2023-05-10T06:07:52;4.47;;;2.30;;
21420;SDS011;10871;50.144;8.428;2023-05-10T06:10:18;2.85;;;2.55;;
21420;SDS011;10871;50.144;8.428;2023-05-10T06:12:45;4.53;;;3.30;;
21420;SDS011;10871;50.144;8.428;2023-05-10T06:15:11;4.25;;;2.60;;
21420;SDS011;10871;50.144;8.428;2023-05-10T06:17:39;2.83;;;2.00;;
21420;SDS011;10871;50.144;8.428;2023-05-10T06:20:06;3.85;;;1.80;;
21420;SDS011;10871;50.144;8.428;2023-05-10T06:22:33;2.28;;;1.90;;
21420;SDS011;10871;50.144;8.428;2023-05-10T06:25:00;3.17;;;2.03;;
21420;SDS011;10871;50.144;8.428;2023-05-10T06:27:26;3.22;;;2.05;;
21420;SDS011;10871;50.144;8.428;2023-05-10T06:29:53;2.33;;;1.70;;
21420;SDS011;10871;50.144;8.428;2023-05-10T06:32:30;3.35;;;1.77;;
21420;SDS011;10871;50.144;8.428;2023-05-10T06:34:58;6.60;;;1.75;;
21420;SDS011;10871;50.144;8.428;2023-05-10T06:37:24;3.08;;;1.90;;
21420;SDS011;10871;50.144;8.428;2023-05-10T06:39:51;2.30;;;1.70;;
21420;SDS011;10871;50.144;8.428;2023-05-10T06:42:20;1.77;;;1.60;;
21420;SDS011;10871;50.144;8.428;2023-05-10T06:44:47;2.60;;;1.52;;
21420;SDS011;10871;50.144;8.428;2023-05-10T06:47:14;2.90;;;1.75;;
21420;SDS011;10871;50.144;8.428;2023-05-10T06:49:40;1.75;;;1.48;;
21420;SDS011;10871;50.144;8.428;2023-05-10T06:52:07;5.25;;;1.88;;
21420;SDS011;10871;50.144;8.428;2023-05-10T06:54:34;2.58;;;1.80;;
21420;SDS011;10871;50.144;8.428;2023-05-10T06:57:00;2.00;;;1.80;;
21420;SDS011;10871;50.144;8.428;2023-05-10T06:59:36;4.72;;;1.90;;
21420;SDS011;10871;50.144;8.428;2023-05-10T07:02:03;2.08;;;1.50;;
21420;SDS011;10871;50.144;8.428;2023-05-10T07:04:29;3.30;;;1.70;;
21420;SDS011;10871;50.144;8.428;2023-05-10T07:06:56;2.88;;;1.98;;
21420;SDS011;10871;50.144;8.428;2023-05-10T07:09:23;4.07;;;2.00;;
21420;SDS011;10871;50.144;8.428;2023-05-10T07:11:50;1.85;;;1.75;;
21420;SDS011;10871;50.144;8.428;2023-05-10T07:14:17;3.40;;;2.08;;
21420;SDS011;10871;50.144;8.428;2023-05-10T07:16:43;2.17;;;1.92;;
21420;SDS011;10871;50.144;8.428;2023-05-10T07:19:10;4.38;;;2.30;;
21420;SDS011;10871;50.144;8.428;2023-05-10T07:21:37;3.33;;;2.13;;
21420;SDS011;10871;50.144;8.428;2023-05-10T07:24:04;2.47;;;1.90;;
21420;SDS011;10871;50.144;8.428;2023-05-10T07:26:30;4.95;;;2.13;;
21420;SDS011;10871;50.144;8.428;2023-05-10T07:28:57;2.85;;;1.98;;
21420;SDS011;10871;50.144;8.428;2023-05-10T07:31:23;3.10;;;1.70;;
21420;SDS011;10871;50.144;8.428;2023-05-10T07:33:50;2.35;;;2.00;;
21420;SDS011;10871;50.144;8.428;2023-05-10T07:36:16;3.65;;;1.90;;
21420;SDS011;10871;50.144;8.428;2023-05-10T07:38:43;2.92;;;1.80;;
21420;SDS011;10871;50.144;8.428;2023-05-10T07:41:11;3.70;;;2.00;;
21420;SDS011;10871;50.144;8.428;2023-05-10T07:43:37;3.30;;;1.83;;
21420;SDS011;10871;50.144;8.428;2023-05-10T07:46:04;3.00;;;2.10;;
21420;SDS011;10871;50.144;8.428;2023-05-10T07:48:31;3.55;;;2.20;;
21420;SDS011;10871;50.144;8.428;2023-05-10T07:50:58;6.82;;;2.10;;
21420;SDS011;10871;50.144;8.428;2023-05-10T07:53:25;4.57;;;2.17;;
21420;SDS011;10871;50.144;8.428;2023-05-10T07:58:39;4.90;;;2.45;;
21420;SDS011;10871;50.144;8.428;2023-05-10T08:01:05;3.40;;;2.00;;
21420;SDS011;10871;50.144;8.428;2023-05-10T08:03:32;2.38;;;1.80;;
21420;SDS011;10871;50.144;8.428;2023-05-10T08:05:58;3.35;;;1.98;;
21420;SDS011;10871;50.144;8.428;2023-05-10T08:08:26;2.90;;;2.10;;
21420;SDS011;10871;50.144;8.428;2023-05-10T08:10:53;4.35;;;2.13;;
21420;SDS011;10871;50.144;8.428;2023-05-10T08:13:20;6.60;;;2.08;;
21420;SDS011;10871;50.144;8.428;2023-05-10T08:15:47;2.78;;;2.00;;
21420;SDS011;10871;50.144;8.428;2023-05-10T08:18:14;5.47;;;2.10;;
21420;SDS011;10871;50.144;8.428;2023-05-10T08:20:41;2.22;;;2.03;;
21420;SDS011;10871;50.144;8.428;2023-05-10T08:23:07;4.97;;;2.20;;
21420;SDS011;10871;50.144;8.428;2023-05-10T08:25:34;3.20;;;2.00;;
21420;SDS011;10871;50.144;8.428;2023-05-10T08:28:01;2.97;;;2.13;;
21420;SDS011;10871;50.144;8.428;2023-05-10T08:30:29;4.63;;;2.30;;
21420;SDS011;10871;50.144;8.428;2023-05-10T08:32:56;4.35;;;2.38;;
21420;SDS011;10871;50.144;8.428;2023-05-10T08:35:22;6.75;;;2.55;;
21420;SDS011;10871;50.144;8.428;2023-05-10T08:37:49;7.18;;;2.80;;
21420;SDS011;10871;50.144;8.428;2023-05-10T08:40:16;6.70;;;2.47;;
21420;SDS011;10871;50.144;8.428;2023-05-10T08:42:58;5.90;;;2.50;;
21420;SDS011;10871;50.144;8.428;2023-05-10T08:45:25;3.20;;;2.40;;
21420;SDS011;10871;50.144;8.428;2023-05-10T08:47:54;3.65;;;2.35;;
21420;SDS011;10871;50.144;8.428;2023-05-10T08:50:22;2.75;;;2.08;;
21420;SDS011;10871;50.144;8.428;2023-05-10T08:52:49;4.30;;;2.42;;
21420;SDS011;10871;50.144;8.428;2023-05-10T08:55:18;7.43;;;2.90;;
21420;SDS011;10871;50.144;8.428;2023-05-10T08:57:45;6.90;;;2.60;;
21420;SDS011;10871;50.144;8.428;2023-05-10T09:00:11;5.40;;;2.40;;
21420;SDS011;10871;50.144;8.428;2023-05-10T09:02:39;3.08;;;2.08;;
21420;SDS011;10871;50.144;8.428;2023-05-10T09:05:06;5.13;;;2.67;;
21420;SDS011;10871;50.144;8.428;2023-05-10T09:07:33;3.55;;;2.50;;
21420;SDS011;10871;50.144;8.428;2023-05-10T09:10:01;3.25;;;2.20;;
21420;SDS011;10871;50.144;8.428;2023-05-10T09:12:28;3.88;;;2.30;;
21420;SDS011;10871;50.144;8.428;2023-05-10T09:14:55;5.28;;;2.17;;
21420;SDS011;10871;50.144;8.428;2023-05-10T09:17:22;5.47;;;2.45;;
21420;SDS011;10871;50.144;8.428;2023-05-10T09:19:49;5.07;;;2.00;;
21420;SDS011;10871;50.144;8.428;2023-05-10T09:22:16;4.38;;;2.30;;
21420;SDS011;10871;50.144;8.428;2023-05-10T09:24:42;4.78;;;1.70;;
21420;SDS011;10871;50.144;8.428;2023-05-10T09:27:11;4.50;;;1.67;;
21420;SDS011;10871;50.144;8.428;2023-05-10T09:29:38;2.25;;;1.88;;
21420;SDS011;10871;50.144;8.428;2023-05-10T09:32:06;6.03;;;1.98;;
21420;SDS011;10871;50.144;8.428;2023-05-10T09:34:32;1.98;;;1.75;;
21420;SDS011;10871;50.144;8.428;2023-05-10T09:37:02;4.80;;;1.70;;
21420;SDS011;10871;50.144;8.428;2023-05-10T09:39:31;5.57;;;1.67;;
21420;SDS011;10871;50.144;8.428;2023-05-10T09:41:58;3.05;;;1.63;;
21420;SDS011;10871;50.144;8.428;2023-05-10T09:44:26;2.38;;;1.83;;
21420;SDS011;10871;50.144;8.428;2023-05-10T09:46:53;2.08;;;1.80;;
21420;SDS011;10871;50.144;8.428;2023-05-10T09:49:20;1.85;;;1.60;;
21420;SDS011;10871;50.144;8.428;2023-05-10T09:51:47;5.00;;;1.70;;
21420;SDS011;10871;50.144;8.428;2023-05-10T09:54:14;3.75;;;1.60;;
21420;SDS011;10871;50.144;8.428;2023-05-10T09:56:41;4.80;;;1.90;;
21420;SDS011;10871;50.144;8.428;2023-05-10T09:59:12;5.20;;;1.63;;
21420;SDS011;10871;50.144;8.428;2023-05-10T10:01:39;1.90;;;1.33;;
21420;SDS011;10871;50.144;8.428;2023-05-10T10:04:08;3.25;;;1.55;;
21420;SDS011;10871;50.144;8.428;2023-05-10T10:06:36;1.50;;;1.40;;
21420;SDS011;10871;50.144;8.428;2023-05-10T10:09:03;3.83;;;1.73;;
21420;SDS011;10871;50.144;8.428;2023-05-10T10:11:30;2.88;;;1.70;;
21420;SDS011;10871;50.144;8.428;2023-05-10T10:13:57;5.70;;;2.00;;
21420;SDS011;10871;50.144;8.428;2023-05-10T10:16:24;2.08;;;1.88;;
21420;SDS011;10871;50.144;8.428;2023-05-10T10:18:51;4.68;;;2.05;;
21420;SDS011;10871;50.144;8.428;2023-05-10T10:21:18;4.13;;;1.58;;
21420;SDS011;10871;50.144;8.428;2023-05-10T10:23:46;3.50;;;1.70;;
21420;SDS011;10871;50.144;8.428;2023-05-10T10:26:13;3.20;;;1.30;;
21420;SDS011;10871;50.144;8.428;2023-05-10T10:28:44;4.07;;;1.48;;
21420;SDS011;10871;50.144;8.428;2023-05-10T10:31:28;3.70;;;1.10;;
21420;SDS011;10871;50.144;8.428;2023-05-10T10:34:09;3.20;;;1.05;;
21420;SDS011;10871;50.144;8.428;2023-05-10T10:36:39;3.20;;;1.10;;
21420;SDS011;10871;50.144;8.428;2023-05-10T10:39:09;1.08;;;0.90;;
21420;SDS011;10871;50.144;8.428;2023-05-10T10:41:37;1.27;;;0.80;;
21420;SDS011;10871;50.144;8.428;2023-05-10T10:44:22;2.58;;;1.10;;
21420;SDS011;10871;50.144;8.428;2023-05-10T10:49:25;1.35;;;1.08;;
21420;SDS011;10871;50.144;8.428;2023-05-10T10:54:37;2.83;;;1.00;;
21420;SDS011;10871;50.144;8.428;2023-05-10T10:57:13;3.78;;;0.95;;
21420;SDS011;10871;50.144;8.428;2023-05-10T10:59:43;3.72;;;1.00;;
21420;SDS011;10871;50.144;8.428;2023-05-10T11:04:57;2.58;;;0.95;;
21420;SDS011;10871;50.144;8.428;2023-05-10T11:07:24;3.85;;;1.00;;
21420;SDS011;10871;50.144;8.428;2023-05-10T11:09:51;1.30;;;0.90;;
21420;SDS011;10871;50.144;8.428;2023-05-10T11:12:18;2.35;;;0.80;;
21420;SDS011;10871;50.144;8.428;2023-05-10T11:14:49;0.90;;;0.80;;
21420;SDS011;10871;50.144;8.428;2023-05-10T11:17:23;3.58;;;0.85;;
21420;SDS011;10871;50.144;8.428;2023-05-10T11:22:17;3.45;;;0.90;;
21420;SDS011;10871;50.144;8.428;2023-05-10T11:24:55;0.75;;;0.65;;
21420;SDS011;10871;50.144;8.428;2023-05-10T11:27:22;2.63;;;0.80;;
21420;SDS011;10871;50.144;8.428;2023-05-10T11:29:51;0.70;;;0.60;;
21420;SDS011;10871;50.144;8.428;2023-05-10T11:32:19;1.92;;;0.80;;
21420;SDS011;10871;50.144;8.428;2023-05-10T11:34:47;2.75;;;0.65;;
21420;SDS011;10871;50.144;8.428;2023-05-10T11:37:14;1.65;;;0.70;;
21420;SDS011;10871;50.144;8.428;2023-05-10T11:39:45;1.45;;;0.80;;
21420;SDS011;10871;50.144;8.428;2023-05-10T11:42:11;0.95;;;0.70;;
21420;SDS011;10871;50.144;8.428;2023-05-10T11:44:38;2.95;;;0.90;;
21420;SDS011;10871;50.144;8.428;2023-05-10T11:47:05;2.03;;;0.80;;
21420;SDS011;10871;50.144;8.428;2023-05-10T11:49:31;1.00;;;0.73;;
21420;SDS011;10871;50.144;8.428;2023-05-10T11:52:05;1.58;;;0.77;;
21420;SDS011;10871;50.144;8.428;2023-05-10T11:54:32;2.03;;;0.80;;
21420;SDS011;10871;50.144;8.428;2023-05-10T11:57:01;1.15;;;0.70;;
21420;SDS011;10871;50.144;8.428;2023-05-10T11:59:27;2.63;;;0.70;;
21420;SDS011;10871;50.144;8.428;2023-05-10T12:01:54;4.00;;;0.80;;
21420;SDS011;10871;50.144;8.428;2023-05-10T12:04:20;1.13;;;0.65;;
21420;SDS011;10871;50.144;8.428;2023-05-10T12:06:47;1.15;;;0.73;;
21420;SDS011;10871;50.144;8.428;2023-05-10T12:09:14;4.50;;;0.98;;
21420;SDS011;10871;50.144;8.428;2023-05-10T12:11:42;1.95;;;0.68;;
21420;SDS011;10871;50.144;8.428;2023-05-10T12:14:10;5.05;;;1.00;;
21420;SDS011;10871;50.144;8.428;2023-05-10T12:16:36;5.63;;;0.75;;
21420;SDS011;10871;50.144;8.428;2023-05-10T12:19:03;1.73;;;0.90;;
21420;SDS011;10871;50.144;8.428;2023-05-10T12:21:30;1.02;;;0.80;;
21420;SDS011;10871;50.144;8.428;2023-05-10T12:23:59;5.88;;;0.88;;
21420;SDS011;10871;50.144;8.428;2023-05-10T12:26:27;2.08;;;0.80;;
21420;SDS011;10871;50.144;8.428;2023-05-10T12:28:54;1.98;;;0.70;;
21420;SDS011;10871;50.144;8.428;2023-05-10T12:31:21;2.83;;;0.80;;
21420;SDS011;10871;50.144;8.428;2023-05-10T12:33:48;3.55;;;0.80;;
21420;SDS011;10871;50.144;8.428;2023-05-10T12:36:16;3.22;;;0.70;;
21420;SDS011;10871;50.144;8.428;2023-05-10T12:38:46;1.85;;;0.80;;
21420;SDS011;10871;50.144;8.428;2023-05-10T12:41:16;1.80;;;0.60;;
21420;SDS011;10871;50.144;8.428;2023-05-10T12:43:43;4.03;;;0.70;;
21420;SDS011;10871;50.144;8.428;2023-05-10T12:46:12;2.33;;;0.70;;
21420;SDS011;10871;50.144;8.428;2023-05-10T12:48:41;1.80;;;0.80;;
21420;SDS011;10871;50.144;8.428;2023-05-10T12:51:11;2.42;;;0.80;;
21420;SDS011;10871;50.144;8.428;2023-05-10T12:53:43;2.47;;;0.80;;
21420;SDS011;10871;50.144;8.428;2023-05-10T12:56:14;1.27;;;0.77;;
21420;SDS011;10871;50.144;8.428;2023-05-10T12:58:44;2.60;;;0.80;;
21420;SDS011;10871;50.144;8.428;2023-05-10T13:01:14;1.60;;;0.70;;
21420;SDS011;10871;50.144;8.428;2023-05-10T13:03:41;1.40;;;0.73;;
21420;SDS011;10871;50.144;8.428;2023-05-10T13:06:09;3.08;;;0.90;;
21420;SDS011;10871;50.144;8.428;2023-05-10T13:08:36;3.88;;;0.98;;
21420;SDS011;10871;50.144;8.428;2023-05-10T13:11:02;3.13;;;0.90;;
21420;SDS011;10871;50.144;8.428;2023-05-10T13:13:33;2.53;;;0.80;;
21420;SDS011;10871;50.144;8.428;2023-05-10T13:16:00;0.60;;;0.60;;
21420;SDS011;10871;50.144;8.428;2023-05-10T13:18:26;1.05;;;0.85;;
21420;SDS011;10871;50.144;8.428;2023-05-10T13:20:53;4.30;;;1.10;;
21420;SDS011;10871;50.144;8.428;2023-05-10T13:23:20;2.63;;;0.77;;
21420;SDS011;10871;50.144;8.428;2023-05-10T13:25:46;2.72;;;0.60;;
21420;SDS011;10871;50.144;8.428;2023-05-10T13:28:13;1.67;;;0.80;;
21420;SDS011;10871;50.144;8.428;2023-05-10T13:30:40;4.00;;;0.73;;
21420;SDS011;10871;50.144;8.428;2023-05-10T13:33:06;1.38;;;0.73;;
21420;SDS011;10871;50.144;8.428;2023-05-10T13:35:33;1.10;;;0.60;;
21420;SDS011;10871;50.144;8.428;2023-05-10T13:37:59;0.80;;;0.60;;
21420;SDS011;10871;50.144;8.428;2023-05-10T13:40:26;2.55;;;0.80;;
21420;SDS011;10871;50.144;8.428;2023-05-10T13:42:56;1.50;;;0.73;;
21420;SDS011;10871;50.144;8.428;2023-05-10T13:45:24;0.93;;;0.68;;
21420;SDS011;10871;50.144;8.428;2023-05-10T13:47:51;0.60;;;0.60;;
21420;SDS011;10871;50.144;8.428;2023-05-10T13:50:18;0.85;;;0.60;;
21420;SDS011;10871;50.144;8.428;2023-05-10T13:52:45;0.77;;;0.70;;
21420;SDS011;10871;50.144;8.428;2023-05-10T13:55:12;2.08;;;0.70;;
21420;SDS011;10871;50.144;8.428;2023-05-10T13:57:39;2.92;;;0.82;;
21420;SDS011;10871;50.144;8.428;2023-05-10T14:00:07;2.33;;;0.70;;
21420;SDS011;10871;50.144;8.428;2023-05-10T14:02:34;4.95;;;0.90;;
21420;SDS011;10871;50.144;8.428;2023-05-10T14:05:01;1.33;;;0.65;;
21420;SDS011;10871;50.144;8.428;2023-05-10T14:07:28;1.55;;;0.60;;
21420;SDS011;10871;50.144;8.428;2023-05-10T14:09:54;1.08;;;0.70;;
21420;SDS011;10871;50.144;8.428;2023-05-10T14:12:21;1.00;;;0.60;;
21420;SDS011;10871;50.144;8.428;2023-05-10T14:14:47;1.02;;;0.63;;
21420;SDS011;10871;50.144;8.428;2023-05-10T14:17:14;2.50;;;0.70;;
21420;SDS011;10871;50.144;8.428;2023-05-10T14:19:41;1.15;;;0.60;;
21420;SDS011;10871;50.144;8.428;2023-05-10T14:22:09;0.95;;;0.68;;
21420;SDS011;10871;50.144;8.428;2023-05-10T14:24:35;0.65;;;0.63;;
21420;SDS011;10871;50.144;8.428;2023-05-10T14:27:03;2.65;;;0.75;;
21420;SDS011;10871;50.144;8.428;2023-05-10T14:29:29;0.60;;;0.60;;
21420;SDS011;10871;50.144;8.428;2023-05-10T14:31:56;2.58;;;0.55;;
21420;SDS011;10871;50.144;8.428;2023-05-10T14:34:23;1.02;;;0.60;;
21420;SDS011;10871;50.144;8.428;2023-05-10T14:36:49;1.50;;;0.60;;
21420;SDS011;10871;50.144;8.428;2023-05-10T14:39:16;2.30;;;0.57;;
21420;SDS011;10871;50.144;8.428;2023-05-10T14:41:42;0.90;;;0.65;;
21420;SDS011;10871;50.144;8.428;2023-05-10T14:44:10;0.95;;;0.80;;
21420;SDS011;10871;50.144;8.428;2023-05-10T14:46:37;2.10;;;0.60;;
21420;SDS011;10871;50.144;8.428;2023-05-10T14:49:04;0.77;;;0.60;;
21420;SDS011;10871;50.144;8.428;2023-05-10T14:51:31;2.78;;;0.90;;
21420;SDS011;10871;50.144;8.428;2023-05-10T14:53:57;2.70;;;0.60;;
21420;SDS011;10871;50.144;8.428;2023-05-10T14:56:24;1.02;;;0.60;;
21420;SDS011;10871;50.144;8.428;2023-05-10T14:58:51;1.30;;;0.73;;
21420;SDS011;10871;50.144;8.428;2023-05-10T15:01:18;1.55;;;0.60;;
21420;SDS011;10871;50.144;8.428;2023-05-10T15:03:46;1.38;;;0.80;;
21420;SDS011;10871;50.144;8.428;2023-05-10T15:06:14;1.02;;;0.60;;
21420;SDS011;10871;50.144;8.428;2023-05-10T15:08:43;2.72;;;0.70;;
21420;SDS011;10871;50.144;8.428;2023-05-10T15:11:09;2.60;;;0.80;;
21420;SDS011;10871;50.144;8.428;2023-05-10T15:13:37;2.28;;;0.80;;
21420;SDS011;10871;50.144;8.428;2023-05-10T15:16:04;1.15;;;0.70;;
21420;SDS011;10871;50.144;8.428;2023-05-10T15:18:30;2.83;;;0.85;;
21420;SDS011;10871;50.144;8.428;2023-05-10T15:20:57;1.50;;;0.80;;
21420;SDS011;10871;50.144;8.428;2023-05-10T15:23:24;2.03;;;0.80;;
21420;SDS011;10871;50.144;8.428;2023-05-10T15:25:51;2.03;;;0.70;;
21420;SDS011;10871;50.144;8.428;2023-05-10T15:28:21;1.92;;;0.80;;
21420;SDS011;10871;50.144;8.428;2023-05-10T15:30:48;5.07;;;1.08;;